sensor_id;sensor_type;location;lat;lon;timestamp;P1;durP1;ratioP1;P2;durP2;ratioP2
18082;SDS011;9168;51.194;6.840;2022-10-03T00:04:40;13.43;;;4.45;;
18082;SDS011;9168;51.194;6.840;2022-10-03T00:07:28;13.57;;;5.03;;
18082;SDS011;9168;51.194;6.840;2022-10-03T00:10:11;18.08;;;5.07;;
18082;SDS011;9168;51.194;6.840;2022-10-03T00:12:57;12.05;;;4.07;;
18082;SDS011;9168;51.194;6.840;2022-10-03T00:15:34;13.63;;;4.25;;
18082;SDS011;9168;51.194;6.840;2022-10-03T00:18:08;14.18;;;4.18;;
18082;SDS011;9168;51.194;6.840;2022-10-03T00:20:57;14.32;;;4.30;;
18082;SDS011;9168;51.194;6.840;2022-10-03T00:23:34;15.55;;;4.30;;
18082;SDS011;9168;51.194;6.840;2022-10-03T00:26:08;21.20;;;5.32;;
18082;SDS011;9168;51.194;6.840;2022-10-03T00:28:59;15.40;;;4.28;;
18082;SDS011;9168;51.194;6.840;2022-10-03T00:31:42;16.45;;;4.65;;
18082;SDS011;9168;51.194;6.840;2022-10-03T00:34:19;17.02;;;4.63;;
18082;SDS011;9168;51.194;6.840;2022-10-03T00:37:10;12.90;;;4.18;;
18082;SDS011;9168;51.194;6.840;2022-10-03T00:39:48;14.23;;;4.28;;
18082;SDS011;9168;51.194;6.840;2022-10-03T00:43:02;13.95;;;3.80;;
18082;SDS011;9168;51.194;6.840;2022-10-03T00:49:21;14.32;;;3.97;;
18082;SDS011;9168;51.194;6.840;2022-10-03T00:52:16;15.63;;;4.03;;
18082;SDS011;9168;51.194;6.840;2022-10-03T00:55:05;15.85;;;4.18;;
18082;SDS011;9168;51.194;6.840;2022-10-03T00:57:48;13.30;;;4.07;;
18082;SDS011;9168;51.194;6.840;2022-10-03T01:00:28;13.95;;;4.30;;
18082;SDS011;9168;51.194;6.840;2022-10-03T01:03:13;18.45;;;4.07;;
18082;SDS011;9168;51.194;6.840;2022-10-03T01:06:03;17.67;;;4.20;;
18082;SDS011;9168;51.194;6.840;2022-10-03T01:08:46;17.17;;;3.95;;
18082;SDS011;9168;51.194;6.840;2022-10-03T01:11:35;19.85;;;3.88;;
18082;SDS011;9168;51.194;6.840;2022-10-03T01:14:18;14.00;;;4.13;;
18082;SDS011;9168;51.194;6.840;2022-10-03T01:17:04;11.98;;;3.70;;
18082;SDS011;9168;51.194;6.840;2022-10-03T01:25:39;17.15;;;4.70;;
18082;SDS011;9168;51.194;6.840;2022-10-03T01:28:26;17.67;;;4.55;;
18082;SDS011;9168;51.194;6.840;2022-10-03T01:31:23;22.35;;;4.70;;
18082;SDS011;9168;51.194;6.840;2022-10-03T01:33:59;18.98;;;5.07;;
18082;SDS011;9168;51.194;6.840;2022-10-03T01:36:33;14.75;;;4.35;;
18082;SDS011;9168;51.194;6.840;2022-10-03T01:39:10;17.73;;;4.65;;
18082;SDS011;9168;51.194;6.840;2022-10-03T01:41:43;22.10;;;5.47;;
18082;SDS011;9168;51.194;6.840;2022-10-03T01:44:17;17.73;;;5.35;;
18082;SDS011;9168;51.194;6.840;2022-10-03T01:46:49;27.13;;;5.53;;
18082;SDS011;9168;51.194;6.840;2022-10-03T01:49:22;17.92;;;4.97;;
18082;SDS011;9168;51.194;6.840;2022-10-03T01:51:59;12.30;;;4.93;;
18082;SDS011;9168;51.194;6.840;2022-10-03T01:54:33;17.42;;;4.50;;
18082;SDS011;9168;51.194;6.840;2022-10-03T01:57:09;15.55;;;4.78;;
18082;SDS011;9168;51.194;6.840;2022-10-03T01:59:45;14.43;;;4.97;;
18082;SDS011;9168;51.194;6.840;2022-10-03T02:02:20;14.68;;;4.22;;
18082;SDS011;9168;51.194;6.840;2022-10-03T02:04:56;12.90;;;4.00;;
18082;SDS011;9168;51.194;6.840;2022-10-03T02:07:28;17.00;;;4.13;;
18082;SDS011;9168;51.194;6.840;2022-10-03T02:10:07;23.00;;;3.75;;
18082;SDS011;9168;51.194;6.840;2022-10-03T02:12:45;20.52;;;5.00;;
18082;SDS011;9168;51.194;6.840;2022-10-03T02:15:20;19.13;;;4.63;;
18082;SDS011;9168;51.194;6.840;2022-10-03T02:17:53;19.08;;;4.25;;
18082;SDS011;9168;51.194;6.840;2022-10-03T02:20:23;8.18;;;3.50;;
18082;SDS011;9168;51.194;6.840;2022-10-03T02:22:56;13.77;;;4.28;;
18082;SDS011;9168;51.194;6.840;2022-10-03T02:25:25;12.50;;;3.65;;
18082;SDS011;9168;51.194;6.840;2022-10-03T02:28:12;28.40;;;4.90;;
18082;SDS011;9168;51.194;6.840;2022-10-03T02:31:17;13.88;;;4.47;;
18082;SDS011;9168;51.194;6.840;2022-10-03T02:34:15;16.85;;;3.80;;
18082;SDS011;9168;51.194;6.840;2022-10-03T02:40:29;14.68;;;4.22;;
18082;SDS011;9168;51.194;6.840;2022-10-03T02:46:32;18.30;;;3.75;;
18082;SDS011;9168;51.194;6.840;2022-10-03T02:52:39;12.85;;;3.58;;
18082;SDS011;9168;51.194;6.840;2022-10-03T02:55:41;10.50;;;3.75;;
18082;SDS011;9168;51.194;6.840;2022-10-03T02:58:41;16.83;;;4.10;;
18082;SDS011;9168;51.194;6.840;2022-10-03T03:07:50;15.32;;;3.67;;
18082;SDS011;9168;51.194;6.840;2022-10-03T03:10:41;16.03;;;4.27;;
18082;SDS011;9168;51.194;6.840;2022-10-03T03:13:49;16.30;;;4.30;;
18082;SDS011;9168;51.194;6.840;2022-10-03T03:16:49;17.67;;;5.18;;
18082;SDS011;9168;51.194;6.840;2022-10-03T03:19:33;14.27;;;4.13;;
18082;SDS011;9168;51.194;6.840;2022-10-03T03:22:11;12.48;;;3.50;;
18082;SDS011;9168;51.194;6.840;2022-10-03T03:24:55;22.05;;;4.65;;
18082;SDS011;9168;51.194;6.840;2022-10-03T03:27:34;10.80;;;3.83;;
18082;SDS011;9168;51.194;6.840;2022-10-03T03:30:09;11.75;;;3.20;;
18082;SDS011;9168;51.194;6.840;2022-10-03T03:32:46;16.77;;;3.50;;
18082;SDS011;9168;51.194;6.840;2022-10-03T03:35:25;13.77;;;4.28;;
18082;SDS011;9168;51.194;6.840;2022-10-03T03:38:02;21.73;;;4.03;;
18082;SDS011;9168;51.194;6.840;2022-10-03T03:40:50;12.37;;;3.77;;
18082;SDS011;9168;51.194;6.840;2022-10-03T03:43:34;25.08;;;4.63;;
18082;SDS011;9168;51.194;6.840;2022-10-03T03:46:13;13.00;;;4.40;;
18082;SDS011;9168;51.194;6.840;2022-10-03T03:48:56;13.55;;;3.65;;
18082;SDS011;9168;51.194;6.840;2022-10-03T03:51:30;16.92;;;3.58;;
18082;SDS011;9168;51.194;6.840;2022-10-03T03:54:14;13.55;;;3.75;;
18082;SDS011;9168;51.194;6.840;2022-10-03T04:00:15;17.00;;;3.97;;
18082;SDS011;9168;51.194;6.840;2022-10-03T04:02:51;16.55;;;3.85;;
18082;SDS011;9168;51.194;6.840;2022-10-03T04:08:34;11.40;;;4.03;;
18082;SDS011;9168;51.194;6.840;2022-10-03T04:11:15;15.38;;;3.47;;
18082;SDS011;9168;51.194;6.840;2022-10-03T04:16:55;13.68;;;3.92;;
18082;SDS011;9168;51.194;6.840;2022-10-03T04:19:53;15.10;;;4.25;;
18082;SDS011;9168;51.194;6.840;2022-10-03T04:22:39;15.60;;;4.50;;
18082;SDS011;9168;51.194;6.840;2022-10-03T04:25:23;16.38;;;4.40;;
18082;SDS011;9168;51.194;6.840;2022-10-03T04:28:04;13.80;;;3.60;;
18082;SDS011;9168;51.194;6.840;2022-10-03T04:30:44;15.90;;;4.00;;
18082;SDS011;9168;51.194;6.840;2022-10-03T04:33:23;15.85;;;4.20;;
18082;SDS011;9168;51.194;6.840;2022-10-03T04:36:18;15.35;;;4.43;;
18082;SDS011;9168;51.194;6.840;2022-10-03T04:39:14;13.63;;;4.18;;
18082;SDS011;9168;51.194;6.840;2022-10-03T04:41:49;14.90;;;4.43;;
18082;SDS011;9168;51.194;6.840;2022-10-03T04:44:29;16.02;;;4.00;;
18082;SDS011;9168;51.194;6.840;2022-10-03T04:47:05;13.68;;;4.00;;
18082;SDS011;9168;51.194;6.840;2022-10-03T04:49:41;10.85;;;3.83;;
18082;SDS011;9168;51.194;6.840;2022-10-03T04:52:15;15.75;;;4.40;;
18082;SDS011;9168;51.194;6.840;2022-10-03T04:54:49;10.82;;;3.92;;
18082;SDS011;9168;51.194;6.840;2022-10-03T04:57:29;13.90;;;4.10;;
18082;SDS011;9168;51.194;6.840;2022-10-03T04:59:58;17.88;;;4.85;;
18082;SDS011;9168;51.194;6.840;2022-10-03T05:02:41;15.25;;;4.95;;
18082;SDS011;9168;51.194;6.840;2022-10-03T05:08:11;18.20;;;5.45;;
18082;SDS011;9168;51.194;6.840;2022-10-03T05:10:51;18.25;;;5.57;;
18082;SDS011;9168;51.194;6.840;2022-10-03T05:13:35;17.25;;;5.60;;
18082;SDS011;9168;51.194;6.840;2022-10-03T05:16:15;19.63;;;4.50;;
18082;SDS011;9168;51.194;6.840;2022-10-03T05:18:49;21.10;;;4.57;;
18082;SDS011;9168;51.194;6.840;2022-10-03T05:21:23;18.38;;;4.63;;
18082;SDS011;9168;51.194;6.840;2022-10-03T05:24:01;19.45;;;4.93;;
18082;SDS011;9168;51.194;6.840;2022-10-03T05:26:42;13.57;;;4.28;;
18082;SDS011;9168;51.194;6.840;2022-10-03T05:29:16;11.55;;;4.05;;
18082;SDS011;9168;51.194;6.840;2022-10-03T05:31:52;15.93;;;4.50;;
18082;SDS011;9168;51.194;6.840;2022-10-03T05:34:32;12.00;;;4.32;;
18082;SDS011;9168;51.194;6.840;2022-10-03T05:37:17;15.65;;;4.18;;
18082;SDS011;9168;51.194;6.840;2022-10-03T05:39:59;12.43;;;4.05;;
18082;SDS011;9168;51.194;6.840;2022-10-03T05:42:38;16.25;;;4.38;;
18082;SDS011;9168;51.194;6.840;2022-10-03T05:45:24;14.05;;;4.20;;
18082;SDS011;9168;51.194;6.840;2022-10-03T05:48:05;16.10;;;4.68;;
18082;SDS011;9168;51.194;6.840;2022-10-03T05:56:51;16.80;;;4.50;;
18082;SDS011;9168;51.194;6.840;2022-10-03T05:59:47;20.48;;;4.53;;
18082;SDS011;9168;51.194;6.840;2022-10-03T06:02:36;18.63;;;4.93;;
18082;SDS011;9168;51.194;6.840;2022-10-03T06:05:30;18.92;;;5.43;;
18082;SDS011;9168;51.194;6.840;2022-10-03T06:11:08;14.27;;;4.43;;
18082;SDS011;9168;51.194;6.840;2022-10-03T06:13:50;20.20;;;4.82;;
18082;SDS011;9168;51.194;6.840;2022-10-03T06:16:38;20.00;;;4.57;;
18082;SDS011;9168;51.194;6.840;2022-10-03T06:19:21;17.77;;;4.47;;
18082;SDS011;9168;51.194;6.840;2022-10-03T06:28:19;23.95;;;5.32;;
18082;SDS011;9168;51.194;6.840;2022-10-03T06:34:24;18.98;;;5.30;;
18082;SDS011;9168;51.194;6.840;2022-10-03T06:37:33;30.25;;;5.63;;
18082;SDS011;9168;51.194;6.840;2022-10-03T06:40:46;19.05;;;4.97;;
18082;SDS011;9168;51.194;6.840;2022-10-03T06:43:56;22.48;;;5.15;;
18082;SDS011;9168;51.194;6.840;2022-10-03T06:47:05;24.55;;;5.43;;
18082;SDS011;9168;51.194;6.840;2022-10-03T06:49:55;26.42;;;5.70;;
18082;SDS011;9168;51.194;6.840;2022-10-03T06:52:55;19.15;;;5.72;;
18082;SDS011;9168;51.194;6.840;2022-10-03T06:56:03;16.95;;;5.57;;
18082;SDS011;9168;51.194;6.840;2022-10-03T06:59:12;21.63;;;5.40;;
18082;SDS011;9168;51.194;6.840;2022-10-03T07:08:23;22.27;;;6.00;;
18082;SDS011;9168;51.194;6.840;2022-10-03T07:11:04;25.30;;;6.35;;
18082;SDS011;9168;51.194;6.840;2022-10-03T07:17:21;23.33;;;6.78;;
18082;SDS011;9168;51.194;6.840;2022-10-03T07:20:20;20.35;;;5.97;;
18082;SDS011;9168;51.194;6.840;2022-10-03T07:23:28;22.35;;;6.45;;
18082;SDS011;9168;51.194;6.840;2022-10-03T07:26:20;26.58;;;7.22;;
18082;SDS011;9168;51.194;6.840;2022-10-03T07:32:19;22.50;;;6.30;;
18082;SDS011;9168;51.194;6.840;2022-10-03T07:35:11;20.73;;;6.80;;
18082;SDS011;9168;51.194;6.840;2022-10-03T07:38:27;21.33;;;7.10;;
18082;SDS011;9168;51.194;6.840;2022-10-03T07:41:29;21.15;;;6.75;;
18082;SDS011;9168;51.194;6.840;2022-10-03T07:44:30;25.83;;;7.57;;
18082;SDS011;9168;51.194;6.840;2022-10-03T07:50:35;26.48;;;8.52;;
18082;SDS011;9168;51.194;6.840;2022-10-03T07:53:36;22.33;;;8.23;;
18082;SDS011;9168;51.194;6.840;2022-10-03T07:56:43;26.35;;;8.40;;
18082;SDS011;9168;51.194;6.840;2022-10-03T08:02:42;33.80;;;8.27;;
18082;SDS011;9168;51.194;6.840;2022-10-03T08:05:48;29.90;;;9.15;;
18082;SDS011;9168;51.194;6.840;2022-10-03T08:08:38;27.00;;;9.48;;
18082;SDS011;9168;51.194;6.840;2022-10-03T08:11:35;31.42;;;9.02;;
18082;SDS011;9168;51.194;6.840;2022-10-03T08:14:31;32.00;;;9.27;;
18082;SDS011;9168;51.194;6.840;2022-10-03T08:17:12;26.15;;;8.35;;
18082;SDS011;9168;51.194;6.840;2022-10-03T08:20:01;34.58;;;8.23;;
18082;SDS011;9168;51.194;6.840;2022-10-03T08:22:46;39.65;;;8.95;;
18082;SDS011;9168;51.194;6.840;2022-10-03T08:25:28;26.65;;;8.27;;
18082;SDS011;9168;51.194;6.840;2022-10-03T08:28:16;20.15;;;7.43;;
18082;SDS011;9168;51.194;6.840;2022-10-03T08:31:11;28.40;;;8.32;;
18082;SDS011;9168;51.194;6.840;2022-10-03T08:34:09;29.83;;;7.85;;
18082;SDS011;9168;51.194;6.840;2022-10-03T08:37:05;21.75;;;6.93;;
18082;SDS011;9168;51.194;6.840;2022-10-03T08:49:43;24.92;;;7.55;;
18082;SDS011;9168;51.194;6.840;2022-10-03T08:52:45;25.40;;;8.15;;
18082;SDS011;9168;51.194;6.840;2022-10-03T08:55:46;28.25;;;7.90;;
18082;SDS011;9168;51.194;6.840;2022-10-03T09:04:36;30.80;;;8.05;;
18082;SDS011;9168;51.194;6.840;2022-10-03T09:07:23;27.75;;;7.28;;
18082;SDS011;9168;51.194;6.840;2022-10-03T09:19:20;24.85;;;7.75;;
18082;SDS011;9168;51.194;6.840;2022-10-03T09:22:17;22.50;;;6.80;;
18082;SDS011;9168;51.194;6.840;2022-10-03T09:25:05;20.58;;;6.75;;
18082;SDS011;9168;51.194;6.840;2022-10-03T09:30:56;28.85;;;6.22;;
18082;SDS011;9168;51.194;6.840;2022-10-03T09:42:49;25.05;;;6.47;;
18082;SDS011;9168;51.194;6.840;2022-10-03T09:52:07;18.55;;;4.32;;
18082;SDS011;9168;51.194;6.840;2022-10-03T09:54:57;22.75;;;5.80;;
18082;SDS011;9168;51.194;6.840;2022-10-03T09:57:51;23.20;;;6.22;;
18082;SDS011;9168;51.194;6.840;2022-10-03T10:00:47;18.50;;;5.22;;
18082;SDS011;9168;51.194;6.840;2022-10-03T10:06:55;17.77;;;5.07;;
18082;SDS011;9168;51.194;6.840;2022-10-03T10:10:01;25.20;;;5.85;;
18082;SDS011;9168;51.194;6.840;2022-10-03T10:13:06;20.25;;;5.18;;
18082;SDS011;9168;51.194;6.840;2022-10-03T10:15:51;22.85;;;5.30;;
18082;SDS011;9168;51.194;6.840;2022-10-03T10:18:52;19.75;;;4.72;;
18082;SDS011;9168;51.194;6.840;2022-10-03T10:22:00;22.48;;;5.22;;
18082;SDS011;9168;51.194;6.840;2022-10-03T10:25:04;17.60;;;4.85;;
18082;SDS011;9168;51.194;6.840;2022-10-03T10:28:01;22.05;;;4.72;;
18082;SDS011;9168;51.194;6.840;2022-10-03T10:30:48;24.40;;;4.60;;
18082;SDS011;9168;51.194;6.840;2022-10-03T10:46:10;12.80;;;2.42;;
18082;SDS011;9168;51.194;6.840;2022-10-03T10:49:03;12.80;;;2.50;;
18082;SDS011;9168;51.194;6.840;2022-10-03T10:58:42;15.93;;;3.05;;
18082;SDS011;9168;51.194;6.840;2022-10-03T11:02:01;14.45;;;3.00;;
18082;SDS011;9168;51.194;6.840;2022-10-03T11:11:12;11.02;;;2.28;;
18082;SDS011;9168;51.194;6.840;2022-10-03T11:14:22;13.00;;;2.40;;
18082;SDS011;9168;51.194;6.840;2022-10-03T11:17:45;17.02;;;2.47;;
18082;SDS011;9168;51.194;6.840;2022-10-03T11:36:05;11.65;;;2.30;;
18082;SDS011;9168;51.194;6.840;2022-10-03T11:39:12;11.55;;;2.00;;
18082;SDS011;9168;51.194;6.840;2022-10-03T11:41:50;11.98;;;2.10;;
18082;SDS011;9168;51.194;6.840;2022-10-03T11:44:23;10.45;;;2.00;;
18082;SDS011;9168;51.194;6.840;2022-10-03T11:46:57;10.57;;;1.88;;
18082;SDS011;9168;51.194;6.840;2022-10-03T11:52:32;11.38;;;2.40;;
18082;SDS011;9168;51.194;6.840;2022-10-03T11:55:07;11.07;;;1.90;;
18082;SDS011;9168;51.194;6.840;2022-10-03T11:57:47;14.02;;;2.50;;
18082;SDS011;9168;51.194;6.840;2022-10-03T12:00:23;13.50;;;2.20;;
18082;SDS011;9168;51.194;6.840;2022-10-03T12:03:03;9.35;;;1.95;;
18082;SDS011;9168;51.194;6.840;2022-10-03T12:05:46;12.30;;;2.05;;
18082;SDS011;9168;51.194;6.840;2022-10-03T12:08:40;10.23;;;2.20;;
18082;SDS011;9168;51.194;6.840;2022-10-03T12:11:20;10.82;;;2.28;;
18082;SDS011;9168;51.194;6.840;2022-10-03T12:14:12;13.85;;;2.67;;
18082;SDS011;9168;51.194;6.840;2022-10-03T12:16:56;11.52;;;2.30;;
18082;SDS011;9168;51.194;6.840;2022-10-03T12:19:32;8.35;;;2.50;;
18082;SDS011;9168;51.194;6.840;2022-10-03T12:22:09;8.55;;;2.60;;
18082;SDS011;9168;51.194;6.840;2022-10-03T12:24:46;12.90;;;2.67;;
18082;SDS011;9168;51.194;6.840;2022-10-03T12:27:17;12.52;;;2.65;;
18082;SDS011;9168;51.194;6.840;2022-10-03T12:29:53;10.27;;;2.30;;
18082;SDS011;9168;51.194;6.840;2022-10-03T12:32:27;7.00;;;2.00;;
18082;SDS011;9168;51.194;6.840;2022-10-03T12:35:05;9.73;;;2.67;;
18082;SDS011;9168;51.194;6.840;2022-10-03T12:37:46;9.75;;;2.55;;
18082;SDS011;9168;51.194;6.840;2022-10-03T12:40:26;10.60;;;2.45;;
18082;SDS011;9168;51.194;6.840;2022-10-03T12:43:03;9.57;;;2.05;;
18082;SDS011;9168;51.194;6.840;2022-10-03T12:45:41;11.43;;;2.13;;
18082;SDS011;9168;51.194;6.840;2022-10-03T12:48:31;9.45;;;2.08;;
18082;SDS011;9168;51.194;6.840;2022-10-03T12:51:09;8.98;;;2.20;;
18082;SDS011;9168;51.194;6.840;2022-10-03T12:53:51;4.30;;;1.42;;
18082;SDS011;9168;51.194;6.840;2022-10-03T12:56:31;8.93;;;1.65;;
18082;SDS011;9168;51.194;6.840;2022-10-03T12:59:16;12.48;;;2.55;;
18082;SDS011;9168;51.194;6.840;2022-10-03T13:02:00;13.15;;;1.88;;
18082;SDS011;9168;51.194;6.840;2022-10-03T13:07:55;3.50;;;1.20;;
18082;SDS011;9168;51.194;6.840;2022-10-03T13:10:32;7.47;;;1.40;;
18082;SDS011;9168;51.194;6.840;2022-10-03T13:13:20;9.68;;;2.13;;
18082;SDS011;9168;51.194;6.840;2022-10-03T13:18:52;7.85;;;1.90;;
18082;SDS011;9168;51.194;6.840;2022-10-03T13:21:27;10.75;;;1.40;;
18082;SDS011;9168;51.194;6.840;2022-10-03T13:24:07;10.77;;;1.83;;
18082;SDS011;9168;51.194;6.840;2022-10-03T13:26:49;9.93;;;1.77;;
18082;SDS011;9168;51.194;6.840;2022-10-03T13:29:25;11.07;;;2.03;;
18082;SDS011;9168;51.194;6.840;2022-10-03T13:32:06;12.70;;;2.42;;
18082;SDS011;9168;51.194;6.840;2022-10-03T13:37:55;13.27;;;1.98;;
18082;SDS011;9168;51.194;6.840;2022-10-03T13:40:31;11.57;;;1.77;;
18082;SDS011;9168;51.194;6.840;2022-10-03T13:43:02;11.15;;;2.15;;
18082;SDS011;9168;51.194;6.840;2022-10-03T13:45:39;9.27;;;1.80;;
18082;SDS011;9168;51.194;6.840;2022-10-03T13:48:10;9.40;;;1.70;;
18082;SDS011;9168;51.194;6.840;2022-10-03T13:50:40;10.35;;;2.03;;
18082;SDS011;9168;51.194;6.840;2022-10-03T13:53:28;7.13;;;2.00;;
18082;SDS011;9168;51.194;6.840;2022-10-03T13:56:13;9.23;;;2.10;;
18082;SDS011;9168;51.194;6.840;2022-10-03T13:58:51;10.18;;;2.13;;
18082;SDS011;9168;51.194;6.840;2022-10-03T14:01:32;12.20;;;2.17;;
18082;SDS011;9168;51.194;6.840;2022-10-03T14:04:20;12.70;;;1.90;;
18082;SDS011;9168;51.194;6.840;2022-10-03T14:07:06;8.85;;;1.77;;
18082;SDS011;9168;51.194;6.840;2022-10-03T14:09:42;8.55;;;1.85;;
18082;SDS011;9168;51.194;6.840;2022-10-03T14:12:33;12.60;;;2.38;;
18082;SDS011;9168;51.194;6.840;2022-10-03T14:15:16;10.85;;;2.10;;
18082;SDS011;9168;51.194;6.840;2022-10-03T14:17:53;8.70;;;1.92;;
18082;SDS011;9168;51.194;6.840;2022-10-03T14:20:28;9.77;;;1.80;;
18082;SDS011;9168;51.194;6.840;2022-10-03T14:23:08;9.65;;;1.95;;
18082;SDS011;9168;51.194;6.840;2022-10-03T14:25:46;10.02;;;2.38;;
18082;SDS011;9168;51.194;6.840;2022-10-03T14:28:21;11.00;;;1.95;;
18082;SDS011;9168;51.194;6.840;2022-10-03T14:30:56;4.97;;;1.45;;
18082;SDS011;9168;51.194;6.840;2022-10-03T14:33:33;9.02;;;1.67;;
18082;SDS011;9168;51.194;6.840;2022-10-03T14:36:10;8.70;;;1.60;;
18082;SDS011;9168;51.194;6.840;2022-10-03T14:38:58;6.47;;;1.63;;
18082;SDS011;9168;51.194;6.840;2022-10-03T14:41:48;9.60;;;2.03;;
18082;SDS011;9168;51.194;6.840;2022-10-03T14:44:35;4.50;;;1.60;;
18082;SDS011;9168;51.194;6.840;2022-10-03T14:47:06;6.07;;;1.58;;
18082;SDS011;9168;51.194;6.840;2022-10-03T14:49:38;10.70;;;2.25;;
18082;SDS011;9168;51.194;6.840;2022-10-03T14:52:17;10.23;;;2.28;;
18082;SDS011;9168;51.194;6.840;2022-10-03T14:54:53;6.97;;;1.95;;
18082;SDS011;9168;51.194;6.840;2022-10-03T14:57:29;8.07;;;2.05;;
18082;SDS011;9168;51.194;6.840;2022-10-03T14:59:57;11.32;;;2.03;;
18082;SDS011;9168;51.194;6.840;2022-10-03T15:02:26;9.07;;;1.98;;
18082;SDS011;9168;51.194;6.840;2022-10-03T15:05:00;11.32;;;2.05;;
18082;SDS011;9168;51.194;6.840;2022-10-03T15:07:33;7.25;;;2.17;;
18082;SDS011;9168;51.194;6.840;2022-10-03T15:10:03;6.78;;;1.98;;
18082;SDS011;9168;51.194;6.840;2022-10-03T15:12:34;7.93;;;2.25;;
18082;SDS011;9168;51.194;6.840;2022-10-03T15:15:04;10.43;;;2.20;;
18082;SDS011;9168;51.194;6.840;2022-10-03T15:17:42;9.00;;;2.28;;
18082;SDS011;9168;51.194;6.840;2022-10-03T15:20:12;7.65;;;2.40;;
18082;SDS011;9168;51.194;6.840;2022-10-03T15:22:46;8.80;;;2.63;;
18082;SDS011;9168;51.194;6.840;2022-10-03T15:25:17;8.57;;;2.13;;
18082;SDS011;9168;51.194;6.840;2022-10-03T15:27:47;8.30;;;2.83;;
18082;SDS011;9168;51.194;6.840;2022-10-03T15:30:18;8.57;;;3.17;;
18082;SDS011;9168;51.194;6.840;2022-10-03T15:32:47;7.90;;;2.63;;
18082;SDS011;9168;51.194;6.840;2022-10-03T15:35:17;12.07;;;3.28;;
18082;SDS011;9168;51.194;6.840;2022-10-03T15:37:49;8.88;;;3.65;;
18082;SDS011;9168;51.194;6.840;2022-10-03T15:40:20;12.60;;;3.92;;
18082;SDS011;9168;51.194;6.840;2022-10-03T15:43:00;11.18;;;3.97;;
18082;SDS011;9168;51.194;6.840;2022-10-03T15:45:31;10.88;;;4.05;;
18082;SDS011;9168;51.194;6.840;2022-10-03T15:48:03;7.88;;;3.03;;
18082;SDS011;9168;51.194;6.840;2022-10-03T15:50:35;11.20;;;2.75;;
18082;SDS011;9168;51.194;6.840;2022-10-03T15:53:05;8.73;;;2.70;;
18082;SDS011;9168;51.194;6.840;2022-10-03T15:55:39;11.30;;;3.03;;
18082;SDS011;9168;51.194;6.840;2022-10-03T15:58:13;16.75;;;4.45;;
18082;SDS011;9168;51.194;6.840;2022-10-03T16:00:42;16.92;;;4.05;;
18082;SDS011;9168;51.194;6.840;2022-10-03T16:03:12;14.23;;;3.15;;
18082;SDS011;9168;51.194;6.840;2022-10-03T16:05:49;13.63;;;2.42;;
18082;SDS011;9168;51.194;6.840;2022-10-03T16:08:21;10.82;;;2.15;;
18082;SDS011;9168;51.194;6.840;2022-10-03T16:10:57;11.82;;;2.95;;
18082;SDS011;9168;51.194;6.840;2022-10-03T16:13:33;12.73;;;2.40;;
18082;SDS011;9168;51.194;6.840;2022-10-03T16:16:07;7.45;;;1.80;;
18082;SDS011;9168;51.194;6.840;2022-10-03T16:18:45;7.13;;;1.90;;
18082;SDS011;9168;51.194;6.840;2022-10-03T16:21:21;8.57;;;2.25;;
18082;SDS011;9168;51.194;6.840;2022-10-03T16:23:56;7.70;;;1.65;;
18082;SDS011;9168;51.194;6.840;2022-10-03T16:26:25;10.45;;;2.00;;
18082;SDS011;9168;51.194;6.840;2022-10-03T16:28:59;9.50;;;1.88;;
18082;SDS011;9168;51.194;6.840;2022-10-03T16:31:31;9.77;;;1.95;;
18082;SDS011;9168;51.194;6.840;2022-10-03T16:34:05;8.20;;;1.80;;
18082;SDS011;9168;51.194;6.840;2022-10-03T16:36:41;7.15;;;2.40;;
18082;SDS011;9168;51.194;6.840;2022-10-03T16:39:14;13.00;;;2.25;;
18082;SDS011;9168;51.194;6.840;2022-10-03T16:41:45;10.82;;;2.85;;
18082;SDS011;9168;51.194;6.840;2022-10-03T16:44:17;10.40;;;2.17;;
18082;SDS011;9168;51.194;6.840;2022-10-03T16:46:48;18.00;;;1.98;;
18082;SDS011;9168;51.194;6.840;2022-10-03T16:49:22;9.40;;;1.92;;
18082;SDS011;9168;51.194;6.840;2022-10-03T16:52:21;10.13;;;1.90;;
18082;SDS011;9168;51.194;6.840;2022-10-03T16:54:55;13.55;;;2.33;;
18082;SDS011;9168;51.194;6.840;2022-10-03T16:57:28;10.05;;;2.90;;
18082;SDS011;9168;51.194;6.840;2022-10-03T17:00:03;9.15;;;2.40;;
18082;SDS011;9168;51.194;6.840;2022-10-03T17:02:32;7.57;;;2.20;;
18082;SDS011;9168;51.194;6.840;2022-10-03T17:05:04;12.25;;;3.13;;
18082;SDS011;9168;51.194;6.840;2022-10-03T17:07:38;32.85;;;13.70;;
18082;SDS011;9168;51.194;6.840;2022-10-03T17:12:55;19.70;;;5.70;;
18082;SDS011;9168;51.194;6.840;2022-10-03T17:15:27;16.67;;;4.72;;
18082;SDS011;9168;51.194;6.840;2022-10-03T17:17:58;14.73;;;4.60;;
18082;SDS011;9168;51.194;6.840;2022-10-03T17:20:36;17.25;;;4.60;;
18082;SDS011;9168;51.194;6.840;2022-10-03T17:23:10;10.25;;;4.00;;
18082;SDS011;9168;51.194;6.840;2022-10-03T17:25:46;14.98;;;4.72;;
18082;SDS011;9168;51.194;6.840;2022-10-03T17:28:26;19.38;;;3.97;;
18082;SDS011;9168;51.194;6.840;2022-10-03T17:30:59;16.25;;;4.45;;
18082;SDS011;9168;51.194;6.840;2022-10-03T17:33:31;14.98;;;3.83;;
18082;SDS011;9168;51.194;6.840;2022-10-03T17:36:09;9.20;;;3.42;;
18082;SDS011;9168;51.194;6.840;2022-10-03T17:39:02;13.32;;;4.50;;
18082;SDS011;9168;51.194;6.840;2022-10-03T17:41:32;18.67;;;5.13;;
18082;SDS011;9168;51.194;6.840;2022-10-03T17:44:12;15.80;;;5.30;;
18082;SDS011;9168;51.194;6.840;2022-10-03T17:46:45;13.20;;;5.38;;
18082;SDS011;9168;51.194;6.840;2022-10-03T17:49:24;17.80;;;5.13;;
18082;SDS011;9168;51.194;6.840;2022-10-03T17:52:02;18.30;;;4.70;;
18082;SDS011;9168;51.194;6.840;2022-10-03T17:54:31;12.70;;;4.18;;
18082;SDS011;9168;51.194;6.840;2022-10-03T17:57:03;13.85;;;4.55;;
18082;SDS011;9168;51.194;6.840;2022-10-03T17:59:39;11.38;;;4.03;;
18082;SDS011;9168;51.194;6.840;2022-10-03T18:02:14;11.30;;;3.60;;
18082;SDS011;9168;51.194;6.840;2022-10-03T18:04:47;9.55;;;3.10;;
18082;SDS011;9168;51.194;6.840;2022-10-03T18:07:23;14.10;;;4.15;;
18082;SDS011;9168;51.194;6.840;2022-10-03T18:09:54;9.85;;;3.30;;
18082;SDS011;9168;51.194;6.840;2022-10-03T18:12:22;17.30;;;4.00;;
18082;SDS011;9168;51.194;6.840;2022-10-03T18:15:10;13.43;;;4.05;;
18082;SDS011;9168;51.194;6.840;2022-10-03T18:21:27;22.02;;;8.70;;
18082;SDS011;9168;51.194;6.840;2022-10-03T18:26:56;24.60;;;11.07;;
18082;SDS011;9168;51.194;6.840;2022-10-03T18:29:34;28.08;;;12.60;;
18082;SDS011;9168;51.194;6.840;2022-10-03T18:32:10;17.95;;;8.30;;
18082;SDS011;9168;51.194;6.840;2022-10-03T18:34:42;20.08;;;7.22;;
18082;SDS011;9168;51.194;6.840;2022-10-03T18:37:16;24.65;;;6.97;;
18082;SDS011;9168;51.194;6.840;2022-10-03T18:40:18;19.75;;;6.45;;
18082;SDS011;9168;51.194;6.840;2022-10-03T18:42:52;20.13;;;5.68;;
18082;SDS011;9168;51.194;6.840;2022-10-03T18:45:20;12.40;;;4.50;;
18082;SDS011;9168;51.194;6.840;2022-10-03T18:47:53;21.27;;;6.00;;
18082;SDS011;9168;51.194;6.840;2022-10-03T18:50:25;14.88;;;4.90;;
18082;SDS011;9168;51.194;6.840;2022-10-03T18:52:57;17.10;;;4.97;;
18082;SDS011;9168;51.194;6.840;2022-10-03T18:55:29;17.80;;;4.82;;
18082;SDS011;9168;51.194;6.840;2022-10-03T18:58:04;15.90;;;4.65;;
18082;SDS011;9168;51.194;6.840;2022-10-03T19:00:44;15.55;;;5.75;;
18082;SDS011;9168;51.194;6.840;2022-10-03T19:03:17;18.23;;;6.10;;
18082;SDS011;9168;51.194;6.840;2022-10-03T19:05:48;15.13;;;5.63;;
18082;SDS011;9168;51.194;6.840;2022-10-03T19:08:19;19.20;;;6.80;;
18082;SDS011;9168;51.194;6.840;2022-10-03T19:10:50;21.98;;;6.57;;
18082;SDS011;9168;51.194;6.840;2022-10-03T19:13:23;13.85;;;5.78;;
18082;SDS011;9168;51.194;6.840;2022-10-03T19:16:00;21.00;;;6.13;;
18082;SDS011;9168;51.194;6.840;2022-10-03T19:18:41;21.67;;;6.57;;
18082;SDS011;9168;51.194;6.840;2022-10-03T19:21:11;16.17;;;6.13;;
18082;SDS011;9168;51.194;6.840;2022-10-03T19:23:43;15.63;;;6.32;;
18082;SDS011;9168;51.194;6.840;2022-10-03T19:26:17;15.57;;;6.75;;
18082;SDS011;9168;51.194;6.840;2022-10-03T19:28:48;22.70;;;6.95;;